Time;durP1;ratioP1;P1;durP2;ratioP2;P2;SDS_P1;SDS_P2;PMS_P1;PMS_P2;Temp;Humidity;BMP_temperature;BMP_pressure;BME280_temperature;BME280_humidity;BME280_pressure;Samples;Min_cycle;Max_cycle;Signal;HPM_P1;HPM_P2
2023/04/19 00:00:14;;;;;;;6.47;5.88;;;;;;;7.04;100.00;95878.66;5043108;28;20091;-71
2023/04/19 00:02:41;;;;;;;6.30;5.70;;;;;;;6.89;100.00;95878.03;5028628;28;20060;-71
2023/04/19 00:05:07;;;;;;;6.22;5.63;;;;;;;6.84;100.00;95872.28;5031858;28;20040;-71
2023/04/19 00:07:32;;;;;;;8.60;7.82;;;;;;;6.88;100.00;95877.19;5045522;28;20222;-71
2023/04/19 00:09:58;;;;;;;13.15;11.82;;;;;;;6.90;100.00;95879.69;5038653;28;20067;-71
2023/04/19 00:12:23;;;;;;;13.55;10.63;;;;;;;6.86;100.00;95871.22;5043781;28;20116;-72
2023/04/19 00:14:49;;;;;;;11.48;10.13;;;;;;;6.84;100.00;95872.28;5038659;28;20033;-71
2023/04/19 00:17:14;;;;;;;12.95;10.60;;;;;;;6.81;100.00;95875.13;5027881;28;20493;-71
2023/04/19 00:19:40;;;;;;;13.77;10.10;;;;;;;6.79;100.00;95875.25;5034460;28;20095;-71
2023/04/19 00:22:05;;;;;;;11.90;9.68;;;;;;;6.77;100.00;95877.16;5033566;28;20021;-72
2023/04/19 00:24:31;;;;;;;11.90;9.98;;;;;;;6.81;100.00;95878.59;5030618;28;20101;-71
2023/04/19 00:26:57;;;;;;;10.02;8.98;;;;;;;6.82;100.00;95879.41;5034694;28;20025;-72
2023/04/19 00:29:23;;;;;;;9.73;8.82;;;;;;;6.83;100.00;95879.31;5029827;28;20022;-71
2023/04/19 00:31:48;;;;;;;8.43;7.72;;;;;;;6.80;100.00;95876.94;5013118;28;20443;-71
2023/04/19 00:34:13;;;;;;;9.27;8.38;;;;;;;6.77;100.00;95876.31;5033880;28;20461;-71
2023/04/19 00:36:39;;;;;;;8.88;8.07;;;;;;;6.74;100.00;95872.97;5033532;28;20054;-72
2023/04/19 00:39:05;;;;;;;9.10;8.13;;;;;;;6.71;100.00;95881.06;5034580;28;20074;-71
2023/04/19 00:41:30;;;;;;;9.52;7.22;;;;;;;6.71;100.00;95877.59;5031884;28;20070;-71
2023/04/19 00:43:55;;;;;;;8.48;7.68;;;;;;;6.68;100.00;95875.22;5032940;28;20029;-71
2023/04/19 00:46:22;;;;;;;10.70;7.25;;;;;;;6.63;100.00;95872.09;5029814;28;20482;-77
2023/04/19 00:48:48;;;;;;;8.57;7.50;;;;;;;6.57;100.00;95871.63;5028420;28;20083;-71
2023/04/19 00:51:14;;;;;;;9.02;7.35;;;;;;;6.51;100.00;95876.47;5031298;28;20417;-71
2023/04/19 00:53:40;;;;;;;6.75;6.18;;;;;;;6.54;100.00;95873.63;5031012;28;20101;-71
2023/04/19 00:56:07;;;;;;;7.07;6.47;;;;;;;6.56;100.00;95876.94;5033268;28;20060;-71
2023/04/19 00:58:32;;;;;;;6.70;5.75;;;;;;;6.52;100.00;95872.88;5032408;28;20025;-71
2023/04/19 01:00:59;;;;;;;7.47;6.80;;;;;;;6.48;100.00;95872.28;5034026;28;20036;-71
2023/04/19 01:03:28;;;;;;;7.05;6.40;;;;;;;6.46;100.00;95874.16;5030923;28;20527;-71
2023/04/19 01:05:54;;;;;;;6.90;6.30;;;;;;;6.44;100.00;95881.28;5032969;28;20025;-71
2023/04/19 01:08:20;;;;;;;6.80;6.20;;;;;;;6.36;100.00;95870.56;5027730;28;20036;-72
2023/04/19 01:10:45;;;;;;;6.32;5.68;;;;;;;6.34;100.00;95867.22;5025096;28;20026;-70
2023/04/19 01:13:11;;;;;;;6.15;5.55;;;;;;;6.33;100.00;95868.19;5031639;28;20029;-71
2023/04/19 01:15:36;;;;;;;6.45;5.95;;;;;;;6.28;100.00;95866.72;5032725;28;20477;-71
2023/04/19 01:18:02;;;;;;;6.45;5.85;;;;;;;6.25;100.00;95859.09;5026659;28;20104;-71
2023/04/19 01:20:27;;;;;;;6.30;5.70;;;;;;;6.16;100.00;95862.38;5038064;28;20061;-70
2023/04/19 01:22:52;;;;;;;5.97;5.53;;;;;;;6.17;100.00;95861.44;5043120;28;20029;-71
2023/04/19 01:25:18;;;;;;;7.22;6.53;;;;;;;6.16;100.00;95867.59;5018332;28;20021;-71
2023/04/19 01:27:44;;;;;;;7.90;6.45;;;;;;;6.15;100.00;95869.38;5032863;28;20024;-71
2023/04/19 01:30:10;;;;;;;6.90;5.88;;;;;;;6.10;100.00;95868.88;5035419;28;20091;-71
2023/04/19 01:32:35;;;;;;;6.85;6.15;;;;;;;6.09;100.00;95858.53;5031526;28;20029;-71
2023/04/19 01:35:00;;;;;;;7.05;6.43;;;;;;;6.06;100.00;95859.59;5038657;28;20405;-71
2023/04/19 01:37:26;;;;;;;6.63;5.95;;;;;;;6.02;100.00;95856.34;5039341;28;20029;-71
2023/04/19 01:39:51;;;;;;;6.57;6.07;;;;;;;6.00;100.00;95858.22;5015278;28;20058;-71
2023/04/19 01:42:17;;;;;;;6.57;6.05;;;;;;;5.97;100.00;95857.63;5046659;28;20037;-71
2023/04/19 01:44:42;;;;;;;7.47;6.78;;;;;;;5.93;100.00;95853.53;5039994;28;20087;-71
2023/04/19 01:47:07;;;;;;;6.45;5.85;;;;;;;5.93;100.00;95850.91;5031969;28;20079;-71
2023/04/19 01:49:33;;;;;;;8.27;6.47;;;;;;;5.92;100.00;95854.47;5027176;28;20578;-71
2023/04/19 01:51:58;;;;;;;8.68;5.05;;;;;;;5.87;100.00;95863.47;5036330;28;20095;-71
2023/04/19 01:54:24;;;;;;;6.10;5.60;;;;;;;5.85;100.00;95848.84;5035778;28;20025;-71
2023/04/19 01:56:49;;;;;;;5.97;5.47;;;;;;;5.84;100.00;95847.16;5035577;28;20098;-72
2023/04/19 01:59:15;;;;;;;6.75;5.78;;;;;;;5.79;100.00;95855.34;5034811;28;20033;-71
2023/04/19 02:01:40;;;;;;;6.22;5.82;;;;;;;5.73;100.00;95853.16;5037575;28;20026;-71
2023/04/19 02:04:06;;;;;;;6.60;5.97;;;;;;;5.69;100.00;95855.16;5033740;28;20033;-71
2023/04/19 02:06:32;;;;;;;6.07;5.60;;;;;;;5.64;100.00;95857.28;5039848;28;20037;-71
2023/04/19 02:08:57;;;;;;;6.60;6.10;;;;;;;5.66;100.00;95854.53;5035251;28;20040;-71
2023/04/19 02:11:23;;;;;;;6.35;5.88;;;;;;;5.67;100.00;95851.84;5030528;28;20025;-71
2023/04/19 02:13:48;;;;;;;6.85;6.35;;;;;;;5.66;100.00;95858.00;5034646;28;20033;-71
2023/04/19 02:16:13;;;;;;;8.80;7.97;;;;;;;5.62;100.00;95858.31;5055504;28;20021;-70
2023/04/19 02:18:40;;;;;;;8.98;8.18;;;;;;;5.57;100.00;95856.00;5044619;28;20028;-71
2023/04/19 02:21:07;;;;;;;7.45;6.72;;;;;;;5.57;100.00;95854.25;5036809;28;20017;-71
2023/04/19 02:23:34;;;;;;;6.72;6.13;;;;;;;5.56;100.00;95855.19;5034047;28;20045;-71
2023/04/19 02:26:02;;;;;;;6.88;6.03;;;;;;;5.54;100.00;95857.09;5033497;28;20021;-71
2023/04/19 02:28:28;;;;;;;7.32;6.65;;;;;;;5.53;100.00;95854.56;5034686;28;20028;-71
2023/04/19 02:30:54;;;;;;;7.70;6.95;;;;;;;5.46;100.00;95856.75;5042654;28;20527;-71
2023/04/19 02:33:21;;;;;;;7.22;6.63;;;;;;;5.44;100.00;95851.66;5035659;28;20033;-71
2023/04/19 02:35:46;;;;;;;7.57;6.78;;;;;;;5.42;100.00;95857.91;5032152;28;20140;-72
2023/04/19 02:38:12;;;;;;;9.02;6.55;;;;;;;5.37;100.00;95850.41;5028217;28;20493;-71
2023/04/19 02:40:37;;;;;;;7.57;6.90;;;;;;;5.35;100.00;95857.50;5035830;28;20060;-71
2023/04/19 02:43:03;;;;;;;6.95;6.45;;;;;;;5.32;100.00;95849.06;5019608;28;20112;-71
2023/04/19 02:45:28;;;;;;;6.78;6.30;;;;;;;5.27;100.00;95852.81;5028985;28;20072;-71
2023/04/19 02:47:54;;;;;;;6.50;6.03;;;;;;;5.30;100.00;95859.59;5031876;28;20091;-71
2023/04/19 02:50:19;;;;;;;7.10;5.72;;;;;;;5.35;100.00;95857.50;5040593;28;20100;-71
2023/04/19 02:52:44;;;;;;;7.78;6.32;;;;;;;5.32;100.00;95852.50;5032189;28;20079;-71
2023/04/19 02:55:10;;;;;;;6.55;6.05;;;;;;;5.26;100.00;95848.53;5003538;28;20029;-71
2023/04/19 02:57:35;;;;;;;6.63;6.13;;;;;;;5.24;100.00;95860.03;5047066;28;20021;-70
2023/04/19 03:00:01;;;;;;;7.45;6.75;;;;;;;5.21;100.00;95847.19;5031266;28;20053;-71
2023/04/19 03:02:26;;;;;;;16.55;14.93;;;;;;;5.23;100.00;95848.72;5033256;28;20609;-70
2023/04/19 03:04:51;;;;;;;14.48;12.18;;;;;;;5.21;100.00;95853.22;5041023;28;20071;-71
2023/04/19 03:07:17;;;;;;;7.80;7.15;;;;;;;5.23;100.00;95853.13;5042233;28;20025;-71
2023/04/19 03:09:43;;;;;;;7.95;6.70;;;;;;;5.21;100.00;95853.22;5030814;28;20068;-70
2023/04/19 03:12:08;;;;;;;8.02;6.72;;;;;;;5.13;100.00;95848.53;5034192;28;20032;-70
2023/04/19 03:14:34;;;;;;;6.45;6.05;;;;;;;5.14;100.00;95852.81;5039564;28;20473;-71
2023/04/19 03:16:59;;;;;;;6.38;5.97;;;;;;;5.13;100.00;95847.72;5022445;28;20014;-70
2023/04/19 03:19:25;;;;;;;6.63;6.03;;;;;;;5.14;100.00;95849.38;5033172;28;20113;-71
2023/04/19 03:21:50;;;;;;;6.88;6.20;;;;;;;5.13;100.00;95858.97;5030155;28;20024;-70
2023/04/19 03:24:18;;;;;;;7.55;6.85;;;;;;;5.10;100.00;95851.34;5029471;28;20037;-71
2023/04/19 03:26:43;;;;;;;8.02;7.32;;;;;;;5.04;100.00;95856.16;5028877;28;20406;-71
2023/04/19 03:29:08;;;;;;;8.05;6.85;;;;;;;5.01;100.00;95844.97;5031839;28;20036;-71
2023/04/19 03:31:34;;;;;;;6.93;6.32;;;;;;;5.02;100.00;95851.03;5036013;28;20021;-71
2023/04/19 03:33:59;;;;;;;6.15;5.80;;;;;;;5.02;100.00;95846.66;5035360;28;20024;-70
2023/04/19 03:36:25;;;;;;;7.15;6.45;;;;;;;5.02;100.00;95845.81;5036153;28;20053;-69
2023/04/19 03:38:51;;;;;;;6.45;5.97;;;;;;;4.98;100.00;95844.38;5029964;28;20049;-70
2023/04/19 03:41:20;;;;;;;6.43;5.90;;;;;;;4.98;100.00;95845.19;5026824;28;20066;-70
2023/04/19 03:43:45;;;;;;;6.50;6.07;;;;;;;4.98;100.00;95850.41;5044487;28;20505;-69
2023/04/19 03:46:11;;;;;;;6.45;6.05;;;;;;;4.98;100.00;95841.75;5041913;28;20124;-70
2023/04/19 03:48:36;;;;;;;10.50;9.52;;;;;;;4.94;100.00;95848.09;5040398;28;20033;-70
2023/04/19 03:51:02;;;;;;;8.40;7.68;;;;;;;4.84;100.00;95842.66;5042176;28;20079;-70
2023/04/19 03:53:27;;;;;;;10.88;9.85;;;;;;;4.82;100.00;95840.19;5041582;28;20394;-69
2023/04/19 03:55:53;;;;;;;7.22;6.65;;;;;;;4.75;100.00;95838.06;5042727;28;20077;-70
2023/04/19 03:58:18;;;;;;;7.50;6.90;;;;;;;4.72;100.00;95836.50;5019516;28;20196;-70
2023/04/19 04:00:43;;;;;;;7.80;7.20;;;;;;;4.71;100.00;95845.25;5043043;28;20486;-70
2023/04/19 04:03:09;;;;;;;6.95;6.45;;;;;;;4.70;100.00;95843.59;5041691;28;20644;-69
2023/04/19 04:05:34;;;;;;;7.55;7.00;;;;;;;4.71;100.00;95842.66;5039258;28;20031;-70
2023/04/19 04:08:00;;;;;;;8.48;6.22;;;;;;;4.74;100.00;95839.84;5013946;28;20371;-70
2023/04/19 04:10:25;;;;;;;7.72;6.20;;;;;;;4.73;100.00;95838.16;5042936;28;20017;-70
2023/04/19 04:12:51;;;;;;;7.32;6.63;;;;;;;4.72;100.00;95839.09;5004117;28;20036;-70
2023/04/19 04:15:17;;;;;;;7.72;7.00;;;;;;;4.65;100.00;95849.13;5042406;28;20521;-71
2023/04/19 04:17:42;;;;;;;7.20;6.50;;;;;;;4.66;100.00;95845.59;5039999;28;20484;-70
2023/04/19 04:20:08;;;;;;;7.32;6.63;;;;;;;4.63;100.00;95844.94;5041342;28;20033;-70
2023/04/19 04:22:34;;;;;;;7.35;6.68;;;;;;;4.58;100.00;95850.44;5050441;28;20048;-70
2023/04/19 04:25:01;;;;;;;8.40;6.85;;;;;;;4.58;100.00;95851.31;5043807;28;20032;-70
2023/04/19 04:27:26;;;;;;;7.50;6.90;;;;;;;4.56;100.00;95857.53;5038145;28;20025;-70
2023/04/19 04:29:51;;;;;;;7.97;7.38;;;;;;;4.50;100.00;95860.56;5040378;28;20075;-70
2023/04/19 04:32:21;;;;;;;7.40;6.80;;;;;;;4.47;100.00;95866.78;5040914;28;20037;-70
2023/04/19 04:34:47;;;;;;;7.10;6.50;;;;;;;4.46;100.00;95864.31;5035154;28;20337;-70
2023/04/19 04:37:12;;;;;;;6.75;6.35;;;;;;;4.41;100.00;95864.59;5034316;28;20079;-70
2023/04/19 04:39:38;;;;;;;7.70;6.88;;;;;;;4.38;100.00;95865.63;5038200;28;20623;-70
2023/04/19 04:42:07;;;;;;;9.10;6.85;;;;;;;4.38;100.00;95867.41;5046274;28;20040;-70
2023/04/19 04:44:36;;;;;;;6.95;6.45;;;;;;;4.37;100.00;95863.13;5049503;28;20025;-70
2023/04/19 04:47:01;;;;;;;10.90;9.35;;;;;;;4.37;100.00;95870.94;5041381;28;20075;-70
2023/04/19 04:49:27;;;;;;;7.70;7.00;;;;;;;4.32;100.00;95865.22;5035429;28;20021;-70
2023/04/19 04:51:52;;;;;;;7.05;6.50;;;;;;;4.32;100.00;95878.25;5034727;28;20033;-70
2023/04/19 04:54:18;;;;;;;7.47;6.88;;;;;;;4.33;100.00;95878.13;5035782;28;20032;-70
2023/04/19 04:56:43;;;;;;;7.25;6.43;;;;;;;4.34;100.00;95869.38;5033682;28;20052;-70
2023/04/19 04:59:09;;;;;;;7.40;6.80;;;;;;;4.33;100.00;95875.50;5048777;28;20048;-70
2023/04/19 05:01:34;;;;;;;7.20;6.68;;;;;;;4.36;100.00;95880.53;5044970;28;20387;-70
2023/04/19 05:04:00;;;;;;;7.07;6.57;;;;;;;4.37;100.00;95876.16;5034184;28;20029;-70
2023/04/19 05:06:26;;;;;;;6.85;6.30;;;;;;;4.38;100.00;95883.03;5043057;28;20474;-70
2023/04/19 05:08:51;;;;;;;9.07;7.13;;;;;;;4.38;100.00;95883.03;5033774;28;20057;-70
2023/04/19 05:11:17;;;;;;;7.30;6.60;;;;;;;4.38;100.00;95880.44;5047053;28;20031;-70
2023/04/19 05:13:42;;;;;;;7.03;6.53;;;;;;;4.39;100.00;95882.13;5049404;28;20025;-70
2023/04/19 05:16:08;;;;;;;7.10;6.50;;;;;;;4.39;100.00;95887.31;5048477;28;20437;-70
2023/04/19 05:18:33;;;;;;;7.78;6.72;;;;;;;4.39;100.00;95879.50;5053826;28;20454;-70
2023/04/19 05:20:59;;;;;;;6.55;5.97;;;;;;;4.39;100.00;95887.31;5043496;28;20037;-70
2023/04/19 05:23:24;;;;;;;7.70;7.05;;;;;;;4.43;100.00;95881.81;5037721;28;20091;-70
2023/04/19 05:25:50;;;;;;;7.03;6.38;;;;;;;4.44;100.00;95877.44;5052902;28;20112;-70
2023/04/19 05:28:15;;;;;;;8.60;7.70;;;;;;;4.44;100.00;95877.44;5053913;28;20111;-70
2023/04/19 05:30:40;;;;;;;7.63;7.03;;;;;;;4.44;100.00;95885.25;5044626;28;20026;-70
2023/04/19 05:33:06;;;;;;;10.25;6.88;;;;;;;4.44;100.00;95880.88;5038194;28;20021;-70
2023/04/19 05:35:31;;;;;;;8.63;7.82;;;;;;;4.51;100.00;95883.09;5037784;28;20052;-70
2023/04/19 05:37:56;;;;;;;8.05;7.18;;;;;;;4.51;100.00;95883.09;5053670;28;20402;-70
2023/04/19 05:40:25;;;;;;;8.15;7.45;;;;;;;4.53;100.00;95881.22;5030193;28;20029;-70
2023/04/19 05:42:50;;;;;;;9.65;7.57;;;;;;;4.53;100.00;95882.06;5053135;28;20021;-70
2023/04/19 05:45:17;;;;;;;9.95;9.15;;;;;;;4.57;100.00;95883.53;5038506;28;20026;-70
2023/04/19 05:47:43;;;;;;;8.93;8.23;;;;;;;4.58;100.00;95884.34;5038324;28;20029;-70
2023/04/19 05:50:08;;;;;;;8.00;6.75;;;;;;;4.60;100.00;95890.28;5037990;28;20430;-70
2023/04/19 05:52:34;;;;;;;9.20;6.93;;;;;;;4.63;100.00;95881.44;5037627;28;20081;-70
2023/04/19 05:55:00;;;;;;;8.25;7.38;;;;;;;4.69;100.00;95881.88;5037687;28;20079;-70
2023/04/19 05:57:26;;;;;;;7.75;6.90;;;;;;;4.73;100.00;95878.13;5037749;28;20031;-70
2023/04/19 05:59:51;;;;;;;11.00;6.57;;;;;;;4.82;100.00;95887.13;5037609;28;20033;-70
2023/04/19 06:02:17;;;;;;;6.63;6.22;;;;;;;4.87;100.00;95885.03;5045561;28;20025;-70
2023/04/19 06:04:42;;;;;;;7.55;6.95;;;;;;;4.90;100.00;95883.16;5011344;28;20026;-70
2023/04/19 06:07:07;;;;;;;8.23;7.43;;;;;;;4.88;100.00;95881.50;5046331;28;20103;-70
2023/04/19 06:09:33;;;;;;;9.13;7.88;;;;;;;4.95;100.00;95875.84;5043180;28;20111;-70
2023/04/19 06:11:58;;;;;;;8.70;7.60;;;;;;;4.99;100.00;95879.97;5032029;28;20028;-70
2023/04/19 06:14:27;;;;;;;7.63;6.93;;;;;;;5.04;100.00;95880.47;5053061;28;20370;-70
2023/04/19 06:16:52;;;;;;;7.65;6.97;;;;;;;5.10;100.00;95882.66;5040028;28;20029;-71
2023/04/19 06:19:18;;;;;;;8.23;7.53;;;;;;;5.28;100.00;95877.16;5051847;28;20409;-71
2023/04/19 06:21:43;;;;;;;12.13;8.15;;;;;;;5.70;100.00;95877.75;5037370;28;20537;-70
2023/04/19 06:24:09;;;;;;;7.80;7.10;;;;;;;6.25;100.00;95869.56;5038592;28;20042;-70
2023/04/19 06:26:34;;;;;;;7.95;7.10;;;;;;;6.85;100.00;95869.56;5043200;28;20563;-70
2023/04/19 06:29:00;;;;;;;7.78;6.68;;;;;;;7.50;100.00;95868.25;5051287;28;20060;-70
2023/04/19 06:31:25;;;;;;;8.02;6.50;;;;;;;8.10;100.00;95868.78;5039055;28;20036;-71
2023/04/19 06:33:51;;;;;;;6.43;5.93;;;;;;;8.69;98.08;95861.50;5042159;28;20064;-71
2023/04/19 06:36:16;;;;;;;6.28;5.78;;;;;;;9.14;95.98;95870.91;5039391;28;20049;-71
2023/04/19 06:38:43;;;;;;;6.95;5.97;;;;;;;9.58;92.04;95869.91;5039307;28;20031;-71
2023/04/19 06:41:09;;;;;;;6.25;5.70;;;;;;;10.17;88.68;95864.84;5036949;28;20031;-72
2023/04/19 06:43:34;;;;;;;5.22;4.60;;;;;;;10.68;85.18;95873.56;5037563;28;20025;-71
2023/04/19 06:46:01;;;;;;;5.22;4.72;;;;;;;11.18;83.00;95867.28;5038992;28;20899;-72
2023/04/19 06:48:27;;;;;;;7.25;4.07;;;;;;;11.61;81.37;95864.25;5038129;28;20032;-71
2023/04/19 06:50:53;;;;;;;7.57;4.57;;;;;;;12.01;79.38;95868.41;5038426;28;20041;-72
2023/04/19 06:53:19;;;;;;;8.35;4.22;;;;;;;12.43;77.61;95861.78;5038582;28;20044;-72
2023/04/19 06:55:45;;;;;;;3.40;3.17;;;;;;;12.57;72.76;95863.09;5038035;28;20499;-72
2023/04/19 06:58:10;;;;;;;3.92;3.63;;;;;;;13.00;70.83;95855.34;5038313;28;20041;-72
2023/04/19 07:00:36;;;;;;;3.47;3.17;;;;;;;13.28;69.00;95862.34;5039371;28;20028;-72
2023/04/19 07:03:02;;;;;;;3.10;2.90;;;;;;;13.56;68.60;95863.06;5038328;28;20029;-72
2023/04/19 07:05:28;;;;;;;3.55;3.22;;;;;;;13.88;67.52;95866.03;5039430;28;20034;-72
2023/04/19 07:07:54;;;;;;;3.33;3.13;;;;;;;13.93;67.80;95866.38;5037950;28;20029;-71
2023/04/19 07:10:19;;;;;;;4.90;2.67;;;;;;;13.99;66.27;95865.72;5039859;28;20039;-71
2023/04/19 07:12:45;;;;;;;2.60;2.50;;;;;;;13.94;66.18;95868.03;5038727;28;20021;-72
2023/04/19 07:15:10;;;;;;;4.32;2.63;;;;;;;14.05;65.24;95866.91;5043975;28;20099;-71
2023/04/19 07:17:36;;;;;;;2.75;2.55;;;;;;;14.50;64.00;95869.38;5043394;28;20033;-71
2023/04/19 07:20:04;;;;;;;2.90;2.70;;;;;;;14.67;61.68;95864.94;5040803;28;20068;-72
2023/04/19 07:22:29;;;;;;;2.50;2.38;;;;;;;14.64;60.26;95866.09;5048175;28;20037;-71
2023/04/19 07:24:54;;;;;;;2.40;2.20;;;;;;;14.87;59.65;95871.63;5041153;28;20037;-72
2023/04/19 07:27:20;;;;;;;4.30;2.83;;;;;;;15.08;59.59;95862.34;5037782;28;20060;-72
2023/04/19 07:29:45;;;;;;;2.92;2.70;;;;;;;14.96;58.70;95869.81;5045429;28;20028;-71
2023/04/19 07:32:12;;;;;;;3.47;2.72;;;;;;;15.07;58.57;95862.53;5040954;28;20025;-72
2023/04/19 07:34:40;;;;;;;5.93;2.60;;;;;;;15.26;57.08;95861.34;5042097;28;20040;-71
2023/04/19 07:37:06;;;;;;;2.38;2.28;;;;;;;15.23;57.81;95864.34;5044529;28;20489;-71
2023/04/19 07:39:32;;;;;;;3.92;2.35;;;;;;;15.92;56.77;95857.78;5035053;28;20096;-72
2023/04/19 07:41:57;;;;;;;2.75;2.55;;;;;;;15.88;55.72;95855.44;5045665;28;20044;-72
2023/04/19 07:44:23;;;;;;;2.60;2.13;;;;;;;16.21;55.03;95857.13;5036810;28;20036;-72
2023/04/19 07:46:48;;;;;;;2.50;2.30;;;;;;;16.52;52.66;95855.47;5038268;28;20064;-72
2023/04/19 07:49:14;;;;;;;2.60;2.40;;;;;;;16.94;52.16;95850.72;5031637;28;20037;-72
2023/04/19 07:51:39;;;;;;;4.55;2.78;;;;;;;17.61;49.33;95852.66;5027550;28;20099;-72
2023/04/19 07:54:05;;;;;;;2.97;2.78;;;;;;;17.50;49.01;95854.94;5025517;28;20445;-71
2023/04/19 07:56:32;;;;;;;2.72;2.38;;;;;;;17.09;48.88;95854.28;5018650;28;20026;-71
2023/04/19 07:58:58;;;;;;;2.20;2.10;;;;;;;17.52;48.17;95855.56;5027627;28;20029;-72
2023/04/19 08:01:24;;;;;;;2.60;2.50;;;;;;;17.77;48.02;95850.81;5024549;28;20034;-72
2023/04/19 08:03:49;;;;;;;2.42;2.33;;;;;;;18.12;46.81;95848.44;5031677;28;20143;-71
2023/04/19 08:06:16;;;;;;;6.55;6.10;;;;;;;18.51;45.38;95849.13;5026800;28;20060;-72
2023/04/19 08:08:42;;;;;;;2.88;2.67;;;;;;;18.61;45.43;95843.47;5031485;28;20029;-72
2023/04/19 08:11:07;;;;;;;2.75;2.10;;;;;;;18.65;45.28;95843.91;5034775;28;20017;-72
2023/04/19 08:13:33;;;;;;;2.30;2.08;;;;;;;18.32;46.08;95846.03;5034362;28;20017;-72
2023/04/19 08:15:58;;;;;;;2.30;2.20;;;;;;;18.43;46.87;95835.88;5029618;28;20029;-71
2023/04/19 08:18:24;;;;;;;2.97;2.67;;;;;;;18.40;44.53;95837.09;5024332;28;20021;-72
2023/04/19 08:20:49;;;;;;;2.35;2.15;;;;;;;18.08;47.71;95833.84;5008273;28;20025;-71
2023/04/19 08:23:15;;;;;;;3.38;2.30;;;;;;;18.11;48.41;95832.66;5028943;28;20071;-72
2023/04/19 08:25:41;;;;;;;4.20;2.50;;;;;;;18.76;43.92;95833.56;5023528;28;20422;-73
2023/04/19 08:28:06;;;;;;;2.70;2.60;;;;;;;18.31;45.54;95823.06;5040792;28;20026;-73
2023/04/19 08:30:31;;;;;;;3.00;2.60;;;;;;;18.33;47.51;95826.38;5034017;28;20052;-74
2023/04/19 08:32:57;;;;;;;2.78;2.58;;;;;;;19.16;45.38;95827.81;5038106;28;20057;-73
2023/04/19 08:35:24;;;;;;;2.92;2.72;;;;;;;19.30;44.31;95823.41;5043751;28;20048;-73
2023/04/19 08:37:50;;;;;;;2.45;2.28;;;;;;;19.58;42.02;95827.09;5052162;28;20025;-73
2023/04/19 08:40:15;;;;;;;2.42;2.25;;;;;;;19.15;43.59;95817.34;5034245;28;20553;-73
2023/04/19 08:42:42;;;;;;;2.35;2.15;;;;;;;18.78;44.15;95812.06;5040553;28;20026;-72
2023/04/19 08:45:10;;;;;;;2.83;2.63;;;;;;;18.95;44.96;95814.47;5054419;28;20470;-73
2023/04/19 08:47:36;;;;;;;2.47;2.30;;;;;;;18.77;44.36;95813.06;5050510;28;20091;-73
2023/04/19 08:50:05;;;;;;;2.40;2.30;;;;;;;18.75;44.61;95821.25;5034725;28;20055;-73
2023/04/19 08:52:35;;;;;;;2.60;2.40;;;;;;;18.83;44.59;95804.31;5033727;28;20013;-73
2023/04/19 08:55:06;;;;;;;3.22;3.03;;;;;;;19.49;43.24;95806.91;5024997;28;20516;-73
2023/04/19 08:57:33;;;;;;;2.58;2.40;;;;;;;19.98;43.45;95803.28;5029481;28;20045;-73
2023/04/19 09:00:00;;;;;;;2.92;2.67;;;;;;;20.70;42.96;95797.56;5037372;28;20044;-73
2023/04/19 09:02:25;;;;;;;5.25;3.00;;;;;;;20.38;41.86;95797.28;5039625;28;20083;-73
2023/04/19 09:04:51;;;;;;;3.90;3.50;;;;;;;20.99;40.84;95794.75;5038915;28;20017;-73
2023/04/19 09:07:24;;;;;;;3.00;2.80;;;;;;;20.49;41.86;95795.88;5040148;28;20029;-73
2023/04/19 09:10:28;;;;;;;2.70;2.50;;;;;;;20.89;39.72;95796.00;5043681;28;20025;-74
2023/04/19 09:13:04;;;;;;;2.70;2.50;;;;;;;20.43;41.74;95791.31;4991896;28;20573;-73
2023/04/19 09:15:40;;;;;;;2.42;2.28;;;;;;;19.87;43.83;95785.13;4997118;28;20073;-73
2023/04/19 09:18:08;;;;;;;2.72;2.53;;;;;;;20.94;40.03;95784.66;5026257;28;20120;-73
2023/04/19 09:20:38;;;;;;;2.97;2.78;;;;;;;20.71;40.67;95780.47;5034996;28;20025;-73
2023/04/19 09:23:06;;;;;;;2.72;2.53;;;;;;;20.30;40.27;95779.59;5034137;28;20512;-72
2023/04/19 09:25:31;;;;;;;2.67;2.47;;;;;;;20.20;42.35;95778.31;5029927;28;20079;-73
2023/04/19 09:28:11;;;;;;;2.90;2.60;;;;;;;20.00;42.00;95774.53;5034360;28;20026;-73
2023/04/19 09:30:37;;;;;;;3.05;2.50;;;;;;;20.31;41.93;95767.88;5023528;28;20030;-72
2023/04/19 09:33:02;;;;;;;2.53;2.33;;;;;;;20.53;40.18;95762.34;5042636;28;20435;-75
2023/04/19 09:35:48;;;;;;;2.58;2.38;;;;;;;20.12;41.31;95768.63;5029078;28;20040;-72
2023/04/19 09:38:14;;;;;;;3.40;2.53;;;;;;;20.56;41.14;95759.28;5011496;28;20029;-73
2023/04/19 09:40:40;;;;;;;2.55;2.38;;;;;;;20.76;40.64;95750.44;5038581;28;20377;-72
2023/04/19 09:43:07;;;;;;;4.43;2.85;;;;;;;20.92;39.41;95756.47;5027741;28;20104;-76
2023/04/19 09:45:44;;;;;;;2.92;2.60;;;;;;;20.52;41.44;95742.00;5043810;28;20053;-73
2023/04/19 09:48:10;;;;;;;4.43;2.83;;;;;;;21.68;37.93;95752.47;5043472;28;20478;-73
2023/04/19 09:50:51;;;;;;;3.30;2.70;;;;;;;20.74;40.38;95737.28;5039739;28;20112;-72
2023/04/19 09:53:17;;;;;;;2.50;2.40;;;;;;;20.82;39.00;95744.31;5045549;28;20021;-72
2023/04/19 09:55:43;;;;;;;2.85;2.13;;;;;;;20.83;38.79;95737.91;5043284;28;20113;-72
2023/04/19 09:58:08;;;;;;;2.53;2.40;;;;;;;20.47;40.21;95737.25;5043749;28;20105;-77
2023/04/19 10:00:34;;;;;;;2.88;2.67;;;;;;;19.83;42.02;95735.81;5037872;28;20500;-74
2023/04/19 10:03:00;;;;;;;2.55;2.35;;;;;;;20.65;41.98;95718.94;5047740;28;20025;-77
2023/04/19 10:05:26;;;;;;;3.75;2.30;;;;;;;20.73;44.03;95724.94;5037904;28;20181;-75
2023/04/19 10:07:52;;;;;;;5.90;2.28;;;;;;;21.32;40.65;95724.28;5038104;28;20017;-76
2023/04/19 10:10:19;;;;;;;5.22;2.38;;;;;;;21.03;38.94;95723.72;5038935;28;20044;-72
2023/04/19 10:12:50;;;;;;;3.03;2.30;;;;;;;21.43;38.22;95720.97;5041976;28;20029;-74
2023/04/19 10:15:16;;;;;;;3.30;2.22;;;;;;;21.04;38.80;95714.66;5039392;28;20017;-73
2023/04/19 10:17:42;;;;;;;2.60;2.40;;;;;;;21.46;39.05;95717.06;5052721;28;20088;-74
2023/04/19 10:20:12;;;;;;;3.38;2.60;;;;;;;21.50;38.63;95712.09;5044824;28;20036;-74
2023/04/19 10:22:39;;;;;;;2.70;2.28;;;;;;;21.47;40.19;95713.38;5041110;28;20029;-73
2023/04/19 10:25:12;;;;;;;2.70;2.50;;;;;;;21.43;40.43;95717.47;5035685;28;20120;-73
2023/04/19 10:27:40;;;;;;;2.75;2.53;;;;;;;21.79;39.48;95710.00;5035919;28;20033;-75
2023/04/19 10:30:12;;;;;;;3.47;2.20;;;;;;;21.46;40.23;95706.38;5045782;28;20067;-72
2023/04/19 10:32:43;;;;;;;3.17;2.30;;;;;;;21.69;38.80;95705.88;5041526;28;20064;-76
2023/04/19 10:35:24;;;;;;;2.85;2.20;;;;;;;22.29;40.20;95706.63;5052982;28;20600;-75
2023/04/19 10:38:07;;;;;;;2.45;2.25;;;;;;;22.97;39.00;95702.44;5052955;28;20017;-75
2023/04/19 10:40:59;;;;;;;2.67;2.38;;;;;;;22.77;37.72;95699.94;5036469;28;20057;-77
2023/04/19 10:43:29;;;;;;;3.97;2.60;;;;;;;22.93;38.38;95692.38;5029225;28;20083;-75
2023/04/19 10:46:12;;;;;;;2.70;2.50;;;;;;;22.88;35.36;95691.19;5031961;28;20026;-72
2023/04/19 10:48:41;;;;;;;2.47;2.28;;;;;;;22.77;35.89;95688.34;5039076;28;20056;-77
2023/04/19 10:51:15;;;;;;;3.20;2.25;;;;;;;22.83;36.43;95688.31;5041035;28;20057;-76
2023/04/19 10:53:58;;;;;;;5.40;2.33;;;;;;;23.06;35.07;95676.13;5039452;28;20041;-77
2023/04/19 10:56:33;;;;;;;2.90;2.70;;;;;;;22.86;35.37;95677.13;5028259;28;20105;-75
2023/04/19 11:01:38;;;;;;;2.55;2.35;;;;;;;21.52;37.28;95669.84;5036684;28;20036;-75
2023/04/19 11:04:05;;;;;;;2.67;2.50;;;;;;;22.24;37.26;95666.25;5037366;28;20029;-76
2023/04/19 11:06:31;;;;;;;2.65;2.45;;;;;;;21.75;37.39;95656.81;5033602;28;20029;-78
2023/04/19 11:08:57;;;;;;;3.53;2.53;;;;;;;21.85;38.29;95660.91;5045325;28;20100;-74
2023/04/19 11:11:24;;;;;;;2.33;2.22;;;;;;;22.16;36.93;95656.59;5051824;28;20108;-74
2023/04/19 11:13:50;;;;;;;2.78;2.38;;;;;;;21.92;36.41;95658.19;5045416;28;20021;-73
2023/04/19 11:16:16;;;;;;;4.30;2.70;;;;;;;22.74;35.71;95652.06;5015915;28;20072;-73
2023/04/19 11:18:42;;;;;;;2.55;2.35;;;;;;;22.20;36.99;95644.38;5035319;28;20470;-73
2023/04/19 11:21:12;;;;;;;3.90;2.40;;;;;;;21.98;37.47;95647.41;5009027;28;20480;-72
2023/04/19 11:23:38;;;;;;;3.47;2.60;;;;;;;22.39;37.08;95639.09;5036220;28;20021;-72
2023/04/19 11:26:03;;;;;;;2.42;2.33;;;;;;;23.50;33.76;95632.31;5037511;28;20090;-72
2023/04/19 11:28:29;;;;;;;2.40;2.30;;;;;;;22.74;35.84;95631.41;5038896;28;20029;-73
2023/04/19 11:30:55;;;;;;;2.40;2.30;;;;;;;23.36;34.15;95621.75;5044993;28;20029;-73